Overview Statistics Trail Chart Weather Telemetry Raw packets
 

This is the latest recevied weather packets stored in our database for station/object KQ7A. If no packets are shown the sender has not sent any weather packets the latest 10 day(s).

<< 71 72 73 74 75 76 77 >>
Time Temp. Humidity Pressure Rain* Wind** Luminosity Snow
1788175334 10° C 74% 1017.7 hPa 0 mm - 0 W/m² -
1788175029 9.44° C 77% 1017.8 hPa 0 mm - 0 W/m² -
1788174726 10° C 77% 1017.8 hPa 0 mm - 0 W/m² -
1788174421 10° C 77% 1017.8 hPa 0 mm - 0 W/m² -
1788174116 10° C 76% 1017.8 hPa 0 mm - 0 W/m² -
1788173815 10.56° C 72% 1018.2 hPa 0 mm - 0 W/m² -
1788173510 11.11° C 72% 1017.7 hPa 0 mm - 0 W/m² -
1788173205 11.67° C 68% 1017.6 hPa 0 mm - 0 W/m² -
1788172902 11.67° C 67% 1017.5 hPa 0 mm - 0 W/m² -
1788172597 11.67° C 67% 1017.5 hPa 0 mm - 0 W/m² -
1788172293 11.67° C 66% 1017.7 hPa 0 mm - 0 W/m² -
1788171993 12.22° C 64% 1017.7 hPa 0 mm - 0 W/m² -
1788171688 11.67° C 66% 1017.8 hPa 0 mm - 0 W/m² -
1788171388 11.67° C 67% 1017.8 hPa 0 mm - 0 W/m² -
1788171083 11.11° C 67% 1017.8 hPa 0 mm - 0 W/m² -
1788170779 11.11° C 68% 1017.8 hPa 0 mm - 0 W/m² -
1788170475 11.11° C 70% 1017.6 hPa 0 mm - 0 W/m² -
1788170173 11.11° C 69% 1017.7 hPa 0 mm - 0 W/m² -
1788169869 11.67° C 69% 1018.1 hPa 0 mm - 0 W/m² -
1788169564 11.67° C 70% 1018.1 hPa 0 mm - 0 W/m² -
1788169260 11.67° C 68% 1017.7 hPa 0 mm - 0 W/m² -
1788168955 12.22° C 68% 1017.9 hPa 0 mm - 0 W/m² -
1788168651 12.22° C 66% 1017.8 hPa 0 mm - 0 W/m² -
1788168347 11.67° C 67% 1017.6 hPa 0 mm - 0 W/m² -
1788168043 11.67° C 68% 1017.7 hPa 0 mm - 0 W/m² -

* Rain latest hour (hover to see other rain measurements)
** Current wind speed in m/s (hover to see current wind gust speed)